sensor_id;sensor_type;location;lat;lon;timestamp;temperature;humidity
4509;DHT22;2267;48.816;9.230;2023-02-02T00:00:24;7.70;99.90
4509;DHT22;2267;48.816;9.230;2023-02-02T00:02:51;7.70;99.90
4509;DHT22;2267;48.816;9.230;2023-02-02T00:05:18;7.70;99.90
4509;DHT22;2267;48.816;9.230;2023-02-02T00:07:44;7.70;99.90
4509;DHT22;2267;48.816;9.230;2023-02-02T00:10:11;7.60;99.90
4509;DHT22;2267;48.816;9.230;2023-02-02T00:12:38;7.60;99.90
4509;DHT22;2267;48.816;9.230;2023-02-02T00:15:05;7.70;99.90
4509;DHT22;2267;48.816;9.230;2023-02-02T00:17:32;7.70;99.90
4509;DHT22;2267;48.816;9.230;2023-02-02T00:19:58;7.70;99.90
4509;DHT22;2267;48.816;9.230;2023-02-02T00:22:25;7.70;99.90
4509;DHT22;2267;48.816;9.230;2023-02-02T00:24:53;7.70;99.90
4509;DHT22;2267;48.816;9.230;2023-02-02T00:27:20;7.70;99.90
4509;DHT22;2267;48.816;9.230;2023-02-02T00:29:47;7.70;99.90
4509;DHT22;2267;48.816;9.230;2023-02-02T00:32:15;7.70;99.90
4509;DHT22;2267;48.816;9.230;2023-02-02T00:34:41;7.70;99.90
4509;DHT22;2267;48.816;9.230;2023-02-02T00:37:08;7.70;99.90
4509;DHT22;2267;48.816;9.230;2023-02-02T00:39:35;7.70;99.90
4509;DHT22;2267;48.816;9.230;2023-02-02T00:42:01;7.70;99.90
4509;DHT22;2267;48.816;9.230;2023-02-02T00:44:28;7.70;99.90
4509;DHT22;2267;48.816;9.230;2023-02-02T00:47:13;7.70;99.90
4509;DHT22;2267;48.816;9.230;2023-02-02T00:49:42;7.70;99.90
4509;DHT22;2267;48.816;9.230;2023-02-02T00:52:09;7.70;99.90
4509;DHT22;2267;48.816;9.230;2023-02-02T00:54:35;7.70;99.90
4509;DHT22;2267;48.816;9.230;2023-02-02T00:57:02;7.70;99.90
4509;DHT22;2267;48.816;9.230;2023-02-02T00:59:29;7.70;99.90
4509;DHT22;2267;48.816;9.230;2023-02-02T01:01:56;7.70;99.90
4509;DHT22;2267;48.816;9.230;2023-02-02T01:04:23;7.70;99.90
4509;DHT22;2267;48.816;9.230;2023-02-02T01:06:50;7.70;99.90
4509;DHT22;2267;48.816;9.230;2023-02-02T01:09:16;7.70;99.90
4509;DHT22;2267;48.816;9.230;2023-02-02T01:11:43;7.70;99.90
4509;DHT22;2267;48.816;9.230;2023-02-02T01:14:10;7.70;99.90
4509;DHT22;2267;48.816;9.230;2023-02-02T01:16:37;7.70;99.90
4509;DHT22;2267;48.816;9.230;2023-02-02T01:19:03;7.70;99.90
4509;DHT22;2267;48.816;9.230;2023-02-02T01:21:30;7.70;99.90
4509;DHT22;2267;48.816;9.230;2023-02-02T01:23:57;7.70;99.90
4509;DHT22;2267;48.816;9.230;2023-02-02T01:26:24;7.70;99.90
4509;DHT22;2267;48.816;9.230;2023-02-02T01:28:51;7.70;99.90
4509;DHT22;2267;48.816;9.230;2023-02-02T01:31:19;7.70;99.90
4509;DHT22;2267;48.816;9.230;2023-02-02T01:33:47;7.70;99.90
4509;DHT22;2267;48.816;9.230;2023-02-02T01:36:18;7.70;99.90
4509;DHT22;2267;48.816;9.230;2023-02-02T01:38:45;7.70;99.90
4509;DHT22;2267;48.816;9.230;2023-02-02T01:41:16;7.60;99.90
4509;DHT22;2267;48.816;9.230;2023-02-02T01:46:18;7.60;99.90
4509;DHT22;2267;48.816;9.230;2023-02-02T01:51:39;7.60;99.90
4509;DHT22;2267;48.816;9.230;2023-02-02T01:54:11;7.60;99.90
4509;DHT22;2267;48.816;9.230;2023-02-02T01:56:45;7.60;99.90
4509;DHT22;2267;48.816;9.230;2023-02-02T01:59:13;7.60;99.90
4509;DHT22;2267;48.816;9.230;2023-02-02T02:01:42;7.60;99.90
4509;DHT22;2267;48.816;9.230;2023-02-02T02:04:10;7.60;99.90
4509;DHT22;2267;48.816;9.230;2023-02-02T02:06:37;7.60;99.90
4509;DHT22;2267;48.816;9.230;2023-02-02T02:09:05;7.60;99.90
4509;DHT22;2267;48.816;9.230;2023-02-02T02:11:34;7.60;99.90
4509;DHT22;2267;48.816;9.230;2023-02-02T02:14:04;7.60;99.90
4509;DHT22;2267;48.816;9.230;2023-02-02T02:20:21;7.60;99.90
4509;DHT22;2267;48.816;9.230;2023-02-02T02:27:16;7.60;99.90
4509;DHT22;2267;48.816;9.230;2023-02-02T02:30:37;7.60;99.90
4509;DHT22;2267;48.816;9.230;2023-02-02T02:33:14;7.60;99.90
4509;DHT22;2267;48.816;9.230;2023-02-02T02:39:05;7.60;99.90
4509;DHT22;2267;48.816;9.230;2023-02-02T02:41:43;7.60;99.90
4509;DHT22;2267;48.816;9.230;2023-02-02T02:44:14;7.60;99.90
4509;DHT22;2267;48.816;9.230;2023-02-02T02:46:43;7.60;99.90
4509;DHT22;2267;48.816;9.230;2023-02-02T02:49:11;7.60;99.90
4509;DHT22;2267;48.816;9.230;2023-02-02T02:54:16;7.60;99.90
4509;DHT22;2267;48.816;9.230;2023-02-02T02:56:47;7.60;99.90
4509;DHT22;2267;48.816;9.230;2023-02-02T03:02:34;7.60;99.90
4509;DHT22;2267;48.816;9.230;2023-02-02T03:10:48;7.60;99.90
4509;DHT22;2267;48.816;9.230;2023-02-02T03:13:15;7.60;99.90
4509;DHT22;2267;48.816;9.230;2023-02-02T03:15:43;7.60;99.90
4509;DHT22;2267;48.816;9.230;2023-02-02T03:18:12;7.60;99.90
4509;DHT22;2267;48.816;9.230;2023-02-02T03:20:40;7.60;99.90
4509;DHT22;2267;48.816;9.230;2023-02-02T03:23:08;7.60;99.90
4509;DHT22;2267;48.816;9.230;2023-02-02T03:25:34;7.60;99.90
4509;DHT22;2267;48.816;9.230;2023-02-02T03:28:02;7.60;99.90
4509;DHT22;2267;48.816;9.230;2023-02-02T03:30:29;7.60;99.90
4509;DHT22;2267;48.816;9.230;2023-02-02T03:32:56;7.60;99.90
4509;DHT22;2267;48.816;9.230;2023-02-02T03:35:23;7.60;99.90
4509;DHT22;2267;48.816;9.230;2023-02-02T03:37:51;7.60;99.90
4509;DHT22;2267;48.816;9.230;2023-02-02T03:40:18;7.50;99.90
4509;DHT22;2267;48.816;9.230;2023-02-02T03:42:45;7.50;99.90
4509;DHT22;2267;48.816;9.230;2023-02-02T03:45:12;7.50;99.90
4509;DHT22;2267;48.816;9.230;2023-02-02T03:47:38;7.60;99.90
4509;DHT22;2267;48.816;9.230;2023-02-02T03:50:06;7.60;99.90
4509;DHT22;2267;48.816;9.230;2023-02-02T03:52:35;7.60;99.90
4509;DHT22;2267;48.816;9.230;2023-02-02T03:55:02;7.60;99.90
4509;DHT22;2267;48.816;9.230;2023-02-02T03:57:29;7.60;99.90
4509;DHT22;2267;48.816;9.230;2023-02-02T03:59:56;7.60;99.90
4509;DHT22;2267;48.816;9.230;2023-02-02T04:02:23;7.60;99.90
4509;DHT22;2267;48.816;9.230;2023-02-02T04:04:50;7.60;99.90
4509;DHT22;2267;48.816;9.230;2023-02-02T04:07:16;7.50;99.90
4509;DHT22;2267;48.816;9.230;2023-02-02T04:09:43;7.60;99.90
4509;DHT22;2267;48.816;9.230;2023-02-02T04:12:10;7.60;99.90
4509;DHT22;2267;48.816;9.230;2023-02-02T04:14:37;7.60;99.90
4509;DHT22;2267;48.816;9.230;2023-02-02T04:17:03;7.60;99.90
4509;DHT22;2267;48.816;9.230;2023-02-02T04:19:30;7.60;99.90
4509;DHT22;2267;48.816;9.230;2023-02-02T04:21:57;7.50;99.90
4509;DHT22;2267;48.816;9.230;2023-02-02T04:24:23;7.60;99.90
4509;DHT22;2267;48.816;9.230;2023-02-02T04:26:50;7.60;99.90
4509;DHT22;2267;48.816;9.230;2023-02-02T04:29:17;7.50;99.90
4509;DHT22;2267;48.816;9.230;2023-02-02T04:31:44;7.60;99.90
4509;DHT22;2267;48.816;9.230;2023-02-02T04:34:11;7.50;99.90
4509;DHT22;2267;48.816;9.230;2023-02-02T04:36:37;7.60;99.90
4509;DHT22;2267;48.816;9.230;2023-02-02T04:39:05;7.60;99.90
4509;DHT22;2267;48.816;9.230;2023-02-02T04:41:31;7.60;99.90
4509;DHT22;2267;48.816;9.230;2023-02-02T04:43:58;7.60;99.90
4509;DHT22;2267;48.816;9.230;2023-02-02T04:46:25;7.60;99.90
4509;DHT22;2267;48.816;9.230;2023-02-02T04:48:53;7.60;99.90
4509;DHT22;2267;48.816;9.230;2023-02-02T04:51:20;7.60;99.90
4509;DHT22;2267;48.816;9.230;2023-02-02T04:53:47;7.60;99.90
4509;DHT22;2267;48.816;9.230;2023-02-02T04:56:16;7.60;99.90
4509;DHT22;2267;48.816;9.230;2023-02-02T04:58:44;7.60;99.90
4509;DHT22;2267;48.816;9.230;2023-02-02T05:01:15;7.60;99.90
4509;DHT22;2267;48.816;9.230;2023-02-02T05:03:43;7.60;99.90
4509;DHT22;2267;48.816;9.230;2023-02-02T05:06:10;7.60;99.90
4509;DHT22;2267;48.816;9.230;2023-02-02T05:08:41;7.60;99.90
4509;DHT22;2267;48.816;9.230;2023-02-02T05:11:15;7.60;99.90
4509;DHT22;2267;48.816;9.230;2023-02-02T05:13:46;7.60;99.90
4509;DHT22;2267;48.816;9.230;2023-02-02T05:16:14;7.60;99.90
4509;DHT22;2267;48.816;9.230;2023-02-02T05:18:41;7.60;99.90
4509;DHT22;2267;48.816;9.230;2023-02-02T05:21:08;7.60;99.90
4509;DHT22;2267;48.816;9.230;2023-02-02T05:23:35;7.60;99.90
4509;DHT22;2267;48.816;9.230;2023-02-02T05:26:02;7.60;99.90
4509;DHT22;2267;48.816;9.230;2023-02-02T05:28:30;7.60;99.90
4509;DHT22;2267;48.816;9.230;2023-02-02T05:30:56;7.60;99.90
4509;DHT22;2267;48.816;9.230;2023-02-02T05:33:23;7.60;99.90
4509;DHT22;2267;48.816;9.230;2023-02-02T05:35:50;7.60;99.90
4509;DHT22;2267;48.816;9.230;2023-02-02T05:38:18;7.60;99.90
4509;DHT22;2267;48.816;9.230;2023-02-02T05:40:47;7.60;99.90
4509;DHT22;2267;48.816;9.230;2023-02-02T05:43:14;7.60;99.90
4509;DHT22;2267;48.816;9.230;2023-02-02T05:45:41;7.60;99.90
4509;DHT22;2267;48.816;9.230;2023-02-02T05:48:12;7.60;99.90
4509;DHT22;2267;48.816;9.230;2023-02-02T05:50:42;7.60;99.90
4509;DHT22;2267;48.816;9.230;2023-02-02T05:53:11;7.60;99.90
4509;DHT22;2267;48.816;9.230;2023-02-02T05:55:38;7.60;99.90
4509;DHT22;2267;48.816;9.230;2023-02-02T05:58:05;7.60;99.90
4509;DHT22;2267;48.816;9.230;2023-02-02T06:00:32;7.60;99.90
4509;DHT22;2267;48.816;9.230;2023-02-02T06:02:59;7.60;99.90
4509;DHT22;2267;48.816;9.230;2023-02-02T06:05:26;7.60;99.90
4509;DHT22;2267;48.816;9.230;2023-02-02T06:07:52;7.60;99.90
4509;DHT22;2267;48.816;9.230;2023-02-02T06:10:19;7.70;99.90
4509;DHT22;2267;48.816;9.230;2023-02-02T06:12:46;7.70;99.90
4509;DHT22;2267;48.816;9.230;2023-02-02T06:15:13;7.70;99.90
4509;DHT22;2267;48.816;9.230;2023-02-02T06:17:40;7.70;99.90
4509;DHT22;2267;48.816;9.230;2023-02-02T06:20:07;7.70;99.90
4509;DHT22;2267;48.816;9.230;2023-02-02T06:22:34;7.70;99.90
4509;DHT22;2267;48.816;9.230;2023-02-02T06:25:01;7.70;99.90
4509;DHT22;2267;48.816;9.230;2023-02-02T06:27:31;7.70;99.90
4509;DHT22;2267;48.816;9.230;2023-02-02T06:29:57;7.70;99.90
4509;DHT22;2267;48.816;9.230;2023-02-02T06:32:24;7.70;99.90
4509;DHT22;2267;48.816;9.230;2023-02-02T06:34:51;7.70;99.90
4509;DHT22;2267;48.816;9.230;2023-02-02T06:37:18;7.70;99.90
4509;DHT22;2267;48.816;9.230;2023-02-02T06:39:45;7.70;99.90
4509;DHT22;2267;48.816;9.230;2023-02-02T06:42:11;7.70;99.90
4509;DHT22;2267;48.816;9.230;2023-02-02T06:44:47;7.70;99.90
4509;DHT22;2267;48.816;9.230;2023-02-02T06:47:14;7.70;99.90
4509;DHT22;2267;48.816;9.230;2023-02-02T06:49:41;7.70;99.90
4509;DHT22;2267;48.816;9.230;2023-02-02T06:52:07;7.70;99.90
4509;DHT22;2267;48.816;9.230;2023-02-02T06:54:34;7.70;99.90
4509;DHT22;2267;48.816;9.230;2023-02-02T06:57:01;7.70;99.90
4509;DHT22;2267;48.816;9.230;2023-02-02T06:59:28;7.70;99.90
4509;DHT22;2267;48.816;9.230;2023-02-02T07:01:54;7.70;99.90
4509;DHT22;2267;48.816;9.230;2023-02-02T07:04:21;7.70;99.90
4509;DHT22;2267;48.816;9.230;2023-02-02T07:06:48;7.70;99.90
4509;DHT22;2267;48.816;9.230;2023-02-02T07:09:15;7.80;99.90
4509;DHT22;2267;48.816;9.230;2023-02-02T07:11:43;7.80;99.90
4509;DHT22;2267;48.816;9.230;2023-02-02T07:14:11;7.80;99.90
4509;DHT22;2267;48.816;9.230;2023-02-02T07:16:37;7.80;99.90
4509;DHT22;2267;48.816;9.230;2023-02-02T07:21:43;7.80;99.90
4509;DHT22;2267;48.816;9.230;2023-02-02T07:24:10;7.80;99.90
4509;DHT22;2267;48.816;9.230;2023-02-02T07:26:36;7.80;99.90
4509;DHT22;2267;48.816;9.230;2023-02-02T07:29:03;7.80;99.90
4509;DHT22;2267;48.816;9.230;2023-02-02T07:31:30;7.90;99.90
4509;DHT22;2267;48.816;9.230;2023-02-02T07:34:01;7.90;99.90
4509;DHT22;2267;48.816;9.230;2023-02-02T07:36:28;7.90;99.90
4509;DHT22;2267;48.816;9.230;2023-02-02T07:38:54;7.90;99.90
4509;DHT22;2267;48.816;9.230;2023-02-02T07:41:23;7.90;99.90
4509;DHT22;2267;48.816;9.230;2023-02-02T07:43:50;7.90;99.90
4509;DHT22;2267;48.816;9.230;2023-02-02T07:46:18;7.90;99.90
4509;DHT22;2267;48.816;9.230;2023-02-02T07:48:45;7.90;99.90
4509;DHT22;2267;48.816;9.230;2023-02-02T07:51:16;7.90;99.90
4509;DHT22;2267;48.816;9.230;2023-02-02T07:53:45;7.90;99.90
4509;DHT22;2267;48.816;9.230;2023-02-02T07:56:24;7.90;99.90
4509;DHT22;2267;48.816;9.230;2023-02-02T07:58:52;7.90;99.90
4509;DHT22;2267;48.816;9.230;2023-02-02T08:01:20;7.90;99.90
4509;DHT22;2267;48.816;9.230;2023-02-02T08:03:49;7.90;99.90
4509;DHT22;2267;48.816;9.230;2023-02-02T08:06:25;8.00;99.90
4509;DHT22;2267;48.816;9.230;2023-02-02T08:08:54;8.00;99.90
4509;DHT22;2267;48.816;9.230;2023-02-02T08:11:22;8.00;99.90
4509;DHT22;2267;48.816;9.230;2023-02-02T08:14:00;8.00;99.90
4509;DHT22;2267;48.816;9.230;2023-02-02T08:16:28;8.00;99.90
4509;DHT22;2267;48.816;9.230;2023-02-02T08:18:56;8.10;99.90
4509;DHT22;2267;48.816;9.230;2023-02-02T08:21:23;8.10;99.90
4509;DHT22;2267;48.816;9.230;2023-02-02T08:23:51;8.10;99.90
4509;DHT22;2267;48.816;9.230;2023-02-02T08:26:27;8.10;99.90
4509;DHT22;2267;48.816;9.230;2023-02-02T08:28:56;8.10;99.90
4509;DHT22;2267;48.816;9.230;2023-02-02T08:31:26;8.10;99.90
4509;DHT22;2267;48.816;9.230;2023-02-02T08:33:54;8.10;99.90
4509;DHT22;2267;48.816;9.230;2023-02-02T08:36:22;8.20;99.90
4509;DHT22;2267;48.816;9.230;2023-02-02T08:38:49;8.20;99.90
4509;DHT22;2267;48.816;9.230;2023-02-02T08:41:18;8.20;99.90
4509;DHT22;2267;48.816;9.230;2023-02-02T08:43:46;8.20;99.90
4509;DHT22;2267;48.816;9.230;2023-02-02T08:46:15;8.20;99.90
4509;DHT22;2267;48.816;9.230;2023-02-02T08:48:42;8.20;99.90
4509;DHT22;2267;48.816;9.230;2023-02-02T08:51:12;8.20;99.90
4509;DHT22;2267;48.816;9.230;2023-02-02T08:53:40;8.20;99.90
4509;DHT22;2267;48.816;9.230;2023-02-02T08:56:13;8.20;99.90
4509;DHT22;2267;48.816;9.230;2023-02-02T08:58:50;8.20;99.90
4509;DHT22;2267;48.816;9.230;2023-02-02T09:03:45;8.20;99.90
4509;DHT22;2267;48.816;9.230;2023-02-02T09:06:17;8.20;99.90
4509;DHT22;2267;48.816;9.230;2023-02-02T09:08:45;8.20;99.90
4509;DHT22;2267;48.816;9.230;2023-02-02T09:11:14;8.20;99.90
4509;DHT22;2267;48.816;9.230;2023-02-02T09:13:43;8.20;99.90
4509;DHT22;2267;48.816;9.230;2023-02-02T09:16:16;8.20;99.90
4509;DHT22;2267;48.816;9.230;2023-02-02T09:18:43;8.20;99.90
4509;DHT22;2267;48.816;9.230;2023-02-02T09:21:13;8.20;99.90
4509;DHT22;2267;48.816;9.230;2023-02-02T09:23:42;8.20;99.90
4509;DHT22;2267;48.816;9.230;2023-02-02T09:26:12;8.20;99.90
4509;DHT22;2267;48.816;9.230;2023-02-02T09:28:42;8.20;99.90
4509;DHT22;2267;48.816;9.230;2023-02-02T09:31:09;8.20;99.90
4509;DHT22;2267;48.816;9.230;2023-02-02T09:33:36;8.20;99.90
4509;DHT22;2267;48.816;9.230;2023-02-02T09:36:05;8.20;99.90
4509;DHT22;2267;48.816;9.230;2023-02-02T09:38:32;8.20;99.90
4509;DHT22;2267;48.816;9.230;2023-02-02T09:40:59;8.20;99.90
4509;DHT22;2267;48.816;9.230;2023-02-02T09:44:20;8.20;99.90
4509;DHT22;2267;48.816;9.230;2023-02-02T09:49:15;8.20;99.90
4509;DHT22;2267;48.816;9.230;2023-02-02T09:51:47;8.20;99.90
4509;DHT22;2267;48.816;9.230;2023-02-02T09:54:20;8.20;99.90
4509;DHT22;2267;48.816;9.230;2023-02-02T09:56:51;8.20;99.90
4509;DHT22;2267;48.816;9.230;2023-02-02T09:59:32;8.20;99.90
4509;DHT22;2267;48.816;9.230;2023-02-02T10:02:12;8.20;99.90
4509;DHT22;2267;48.816;9.230;2023-02-02T10:04:42;8.30;99.90
4509;DHT22;2267;48.816;9.230;2023-02-02T10:07:29;8.30;99.90
4509;DHT22;2267;48.816;9.230;2023-02-02T10:10:13;8.20;99.90
4509;DHT22;2267;48.816;9.230;2023-02-02T10:12:51;8.20;99.90
4509;DHT22;2267;48.816;9.230;2023-02-02T10:15:55;8.20;99.90
4509;DHT22;2267;48.816;9.230;2023-02-02T10:23:56;8.20;99.90
4509;DHT22;2267;48.816;9.230;2023-02-02T10:26:36;8.20;99.90
4509;DHT22;2267;48.816;9.230;2023-02-02T10:32:27;8.20;99.90
4509;DHT22;2267;48.816;9.230;2023-02-02T10:38:31;8.20;99.90
4509;DHT22;2267;48.816;9.230;2023-02-02T10:46:22;8.20;99.90
4509;DHT22;2267;48.816;9.230;2023-02-02T10:48:49;8.20;99.90
4509;DHT22;2267;48.816;9.230;2023-02-02T10:51:28;8.20;99.90
4509;DHT22;2267;48.816;9.230;2023-02-02T10:54:00;8.20;99.90
4509;DHT22;2267;48.816;9.230;2023-02-02T10:56:37;8.20;99.90
4509;DHT22;2267;48.816;9.230;2023-02-02T10:59:10;8.20;99.90
4509;DHT22;2267;48.816;9.230;2023-02-02T11:01:40;8.20;99.90
4509;DHT22;2267;48.816;9.230;2023-02-02T11:04:08;8.20;99.90
4509;DHT22;2267;48.816;9.230;2023-02-02T11:06:55;8.20;99.90
4509;DHT22;2267;48.816;9.230;2023-02-02T11:09:35;8.20;99.90
4509;DHT22;2267;48.816;9.230;2023-02-02T11:12:18;8.30;99.90
4509;DHT22;2267;48.816;9.230;2023-02-02T11:14:51;8.30;99.90
4509;DHT22;2267;48.816;9.230;2023-02-02T11:17:21;8.30;99.90
4509;DHT22;2267;48.816;9.230;2023-02-02T11:19:50;8.30;99.90
4509;DHT22;2267;48.816;9.230;2023-02-02T11:22:26;8.30;99.90
4509;DHT22;2267;48.816;9.230;2023-02-02T11:24:54;8.30;99.90
4509;DHT22;2267;48.816;9.230;2023-02-02T11:29:58;8.30;99.90
4509;DHT22;2267;48.816;9.230;2023-02-02T11:32:45;8.30;99.90
4509;DHT22;2267;48.816;9.230;2023-02-02T11:35:16;8.30;99.90
4509;DHT22;2267;48.816;9.230;2023-02-02T11:38:08;8.40;99.90
4509;DHT22;2267;48.816;9.230;2023-02-02T11:40:43;8.40;99.90
4509;DHT22;2267;48.816;9.230;2023-02-02T11:43:22;8.40;99.90
4509;DHT22;2267;48.816;9.230;2023-02-02T11:46:05;8.40;99.90
4509;DHT22;2267;48.816;9.230;2023-02-02T11:48:36;8.40;99.90
4509;DHT22;2267;48.816;9.230;2023-02-02T11:51:04;8.40;99.90
4509;DHT22;2267;48.816;9.230;2023-02-02T11:53:43;8.40;99.90
4509;DHT22;2267;48.816;9.230;2023-02-02T11:56:21;8.40;99.90
4509;DHT22;2267;48.816;9.230;2023-02-02T11:58:51;8.40;99.90
4509;DHT22;2267;48.816;9.230;2023-02-02T12:01:30;8.40;99.90
4509;DHT22;2267;48.816;9.230;2023-02-02T12:04:00;8.40;99.90
4509;DHT22;2267;48.816;9.230;2023-02-02T12:06:35;8.40;99.90
4509;DHT22;2267;48.816;9.230;2023-02-02T12:09:11;8.40;99.90
4509;DHT22;2267;48.816;9.230;2023-02-02T12:12:19;8.40;99.90
4509;DHT22;2267;48.816;9.230;2023-02-02T12:14:53;8.40;99.90
4509;DHT22;2267;48.816;9.230;2023-02-02T12:17:38;8.40;99.90
4509;DHT22;2267;48.816;9.230;2023-02-02T12:26:46;8.40;99.90
4509;DHT22;2267;48.816;9.230;2023-02-02T12:39:36;8.30;99.90
4509;DHT22;2267;48.816;9.230;2023-02-02T12:50:43;8.20;99.90
4509;DHT22;2267;48.816;9.230;2023-02-02T12:53:44;8.20;99.90
4509;DHT22;2267;48.816;9.230;2023-02-02T12:56:51;8.20;99.90
4509;DHT22;2267;48.816;9.230;2023-02-02T13:02:32;8.10;99.90
4509;DHT22;2267;48.816;9.230;2023-02-02T13:07:57;8.10;99.90
4509;DHT22;2267;48.816;9.230;2023-02-02T13:10:46;8.10;99.90
4509;DHT22;2267;48.816;9.230;2023-02-02T13:13:28;8.10;99.90
4509;DHT22;2267;48.816;9.230;2023-02-02T13:16:10;8.10;99.90
4509;DHT22;2267;48.816;9.230;2023-02-02T13:18:46;8.10;99.90
4509;DHT22;2267;48.816;9.230;2023-02-02T13:21:15;8.10;99.90
4509;DHT22;2267;48.816;9.230;2023-02-02T13:23:50;8.10;99.90
4509;DHT22;2267;48.816;9.230;2023-02-02T13:26:18;8.10;99.90
4509;DHT22;2267;48.816;9.230;2023-02-02T13:34:52;8.10;99.90
4509;DHT22;2267;48.816;9.230;2023-02-02T13:37:36;8.10;99.90
4509;DHT22;2267;48.816;9.230;2023-02-02T13:40:15;8.10;99.90
4509;DHT22;2267;48.816;9.230;2023-02-02T13:48:15;8.20;99.90
4509;DHT22;2267;48.816;9.230;2023-02-02T13:56:29;8.20;99.90
4509;DHT22;2267;48.816;9.230;2023-02-02T14:01:49;8.20;99.90
4509;DHT22;2267;48.816;9.230;2023-02-02T14:04:27;8.20;99.90
4509;DHT22;2267;48.816;9.230;2023-02-02T14:07:03;8.20;99.90
4509;DHT22;2267;48.816;9.230;2023-02-02T14:09:33;8.20;99.90
4509;DHT22;2267;48.816;9.230;2023-02-02T14:12:05;8.20;99.90
4509;DHT22;2267;48.816;9.230;2023-02-02T14:14:34;8.20;99.90
4509;DHT22;2267;48.816;9.230;2023-02-02T14:19:57;8.20;99.90
4509;DHT22;2267;48.816;9.230;2023-02-02T14:28:00;8.30;99.90
4509;DHT22;2267;48.816;9.230;2023-02-02T14:30:32;8.30;99.90
4509;DHT22;2267;48.816;9.230;2023-02-02T14:33:38;8.30;99.90
4509;DHT22;2267;48.816;9.230;2023-02-02T14:36:13;8.30;99.90
4509;DHT22;2267;48.816;9.230;2023-02-02T14:38:55;8.30;99.90
4509;DHT22;2267;48.816;9.230;2023-02-02T14:41:34;8.30;99.90
4509;DHT22;2267;48.816;9.230;2023-02-02T14:44:26;8.30;99.90
4509;DHT22;2267;48.816;9.230;2023-02-02T14:46:54;8.30;99.90
4509;DHT22;2267;48.816;9.230;2023-02-02T14:49:25;8.30;99.90
4509;DHT22;2267;48.816;9.230;2023-02-02T14:51:57;8.30;99.90
4509;DHT22;2267;48.816;9.230;2023-02-02T14:54:37;8.30;99.90
4509;DHT22;2267;48.816;9.230;2023-02-02T14:57:26;8.30;99.90
4509;DHT22;2267;48.816;9.230;2023-02-02T14:59:54;8.30;99.90
4509;DHT22;2267;48.816;9.230;2023-02-02T15:02:34;8.30;99.90
4509;DHT22;2267;48.816;9.230;2023-02-02T15:11:01;8.40;99.90
4509;DHT22;2267;48.816;9.230;2023-02-02T15:13:50;8.40;99.90
4509;DHT22;2267;48.816;9.230;2023-02-02T15:16:28;8.40;99.90
4509;DHT22;2267;48.816;9.230;2023-02-02T15:19:05;8.40;99.90
4509;DHT22;2267;48.816;9.230;2023-02-02T15:21:37;8.40;99.90
4509;DHT22;2267;48.816;9.230;2023-02-02T15:24:12;8.40;99.90
4509;DHT22;2267;48.816;9.230;2023-02-02T15:26:42;8.40;99.90
4509;DHT22;2267;48.816;9.230;2023-02-02T15:29:18;8.40;99.90
4509;DHT22;2267;48.816;9.230;2023-02-02T15:31:50;8.40;99.90
4509;DHT22;2267;48.816;9.230;2023-02-02T15:34:28;8.40;99.90
4509;DHT22;2267;48.816;9.230;2023-02-02T15:36:59;8.40;99.90
4509;DHT22;2267;48.816;9.230;2023-02-02T15:39:50;8.40;99.90
4509;DHT22;2267;48.816;9.230;2023-02-02T15:42:39;8.40;99.90
4509;DHT22;2267;48.816;9.230;2023-02-02T15:45:33;8.40;99.90
4509;DHT22;2267;48.816;9.230;2023-02-02T15:48:24;8.40;99.90
4509;DHT22;2267;48.816;9.230;2023-02-02T15:50:53;8.40;99.90
4509;DHT22;2267;48.816;9.230;2023-02-02T15:53:32;8.40;99.90
4509;DHT22;2267;48.816;9.230;2023-02-02T15:55:59;8.40;99.90
4509;DHT22;2267;48.816;9.230;2023-02-02T15:58:46;8.40;99.90
4509;DHT22;2267;48.816;9.230;2023-02-02T16:01:19;8.40;99.90
4509;DHT22;2267;48.816;9.230;2023-02-02T16:06:20;8.40;99.90
4509;DHT22;2267;48.816;9.230;2023-02-02T16:08:47;8.40;99.90
4509;DHT22;2267;48.816;9.230;2023-02-02T16:11:17;8.40;99.90
4509;DHT22;2267;48.816;9.230;2023-02-02T16:14:05;8.40;99.90
4509;DHT22;2267;48.816;9.230;2023-02-02T16:16:34;8.40;99.90
4509;DHT22;2267;48.816;9.230;2023-02-02T16:21:39;8.40;99.90
4509;DHT22;2267;48.816;9.230;2023-02-02T16:24:16;8.50;99.90
4509;DHT22;2267;48.816;9.230;2023-02-02T16:26:44;8.40;99.90
4509;DHT22;2267;48.816;9.230;2023-02-02T16:29:12;8.50;99.90
4509;DHT22;2267;48.816;9.230;2023-02-02T16:31:45;8.50;99.90
4509;DHT22;2267;48.816;9.230;2023-02-02T16:35:02;8.40;99.90
4509;DHT22;2267;48.816;9.230;2023-02-02T16:37:05;8.50;99.90
4509;DHT22;2267;48.816;9.230;2023-02-02T16:39:32;8.50;99.90
4509;DHT22;2267;48.816;9.230;2023-02-02T16:42:30;8.50;99.90
4509;DHT22;2267;48.816;9.230;2023-02-02T16:44:58;8.50;99.90
4509;DHT22;2267;48.816;9.230;2023-02-02T16:52:46;8.50;99.90
4509;DHT22;2267;48.816;9.230;2023-02-02T16:55:18;8.50;99.90
4509;DHT22;2267;48.816;9.230;2023-02-02T16:57:46;8.50;99.90
4509;DHT22;2267;48.816;9.230;2023-02-02T17:00:26;8.50;99.90
4509;DHT22;2267;48.816;9.230;2023-02-02T17:03:08;8.50;99.90
4509;DHT22;2267;48.816;9.230;2023-02-02T17:05:50;8.50;99.90
4509;DHT22;2267;48.816;9.230;2023-02-02T17:08:31;8.50;99.90
4509;DHT22;2267;48.816;9.230;2023-02-02T17:11:19;8.50;99.90
4509;DHT22;2267;48.816;9.230;2023-02-02T17:13:47;8.50;99.90
4509;DHT22;2267;48.816;9.230;2023-02-02T17:16:17;8.50;99.90
4509;DHT22;2267;48.816;9.230;2023-02-02T17:18:45;8.50;99.90
4509;DHT22;2267;48.816;9.230;2023-02-02T17:21:23;8.50;99.90
4509;DHT22;2267;48.816;9.230;2023-02-02T17:23:51;8.50;99.90
4509;DHT22;2267;48.816;9.230;2023-02-02T17:26:19;8.50;99.90
4509;DHT22;2267;48.816;9.230;2023-02-02T17:28:46;8.50;99.90
4509;DHT22;2267;48.816;9.230;2023-02-02T17:31:15;8.40;99.90
4509;DHT22;2267;48.816;9.230;2023-02-02T17:33:42;8.40;99.90
4509;DHT22;2267;48.816;9.230;2023-02-02T17:36:11;8.40;99.90
4509;DHT22;2267;48.816;9.230;2023-02-02T17:38:38;8.40;99.90
4509;DHT22;2267;48.816;9.230;2023-02-02T17:41:05;8.40;99.90
4509;DHT22;2267;48.816;9.230;2023-02-02T17:43:32;8.40;99.90
4509;DHT22;2267;48.816;9.230;2023-02-02T17:46:01;8.40;99.90
4509;DHT22;2267;48.816;9.230;2023-02-02T17:48:28;8.40;99.90
4509;DHT22;2267;48.816;9.230;2023-02-02T17:50:55;8.40;99.90
4509;DHT22;2267;48.816;9.230;2023-02-02T17:53:22;8.40;99.90
4509;DHT22;2267;48.816;9.230;2023-02-02T17:55:49;8.40;99.90
4509;DHT22;2267;48.816;9.230;2023-02-02T17:58:16;8.40;99.90
4509;DHT22;2267;48.816;9.230;2023-02-02T18:00:46;8.40;99.90
4509;DHT22;2267;48.816;9.230;2023-02-02T18:03:30;8.40;99.90
4509;DHT22;2267;48.816;9.230;2023-02-02T18:06:00;8.30;99.90
4509;DHT22;2267;48.816;9.230;2023-02-02T18:08:28;8.40;99.90
4509;DHT22;2267;48.816;9.230;2023-02-02T18:10:55;8.40;99.90
4509;DHT22;2267;48.816;9.230;2023-02-02T18:13:23;8.40;99.90
4509;DHT22;2267;48.816;9.230;2023-02-02T18:15:50;8.40;99.90
4509;DHT22;2267;48.816;9.230;2023-02-02T18:18:17;8.40;99.90
4509;DHT22;2267;48.816;9.230;2023-02-02T18:20:46;8.40;99.90
4509;DHT22;2267;48.816;9.230;2023-02-02T18:23:14;8.40;99.90
4509;DHT22;2267;48.816;9.230;2023-02-02T18:25:42;8.40;99.90
4509;DHT22;2267;48.816;9.230;2023-02-02T18:28:09;8.40;99.90
4509;DHT22;2267;48.816;9.230;2023-02-02T18:30:40;8.40;99.90
4509;DHT22;2267;48.816;9.230;2023-02-02T18:33:11;8.40;99.90
4509;DHT22;2267;48.816;9.230;2023-02-02T18:35:42;8.40;99.90
4509;DHT22;2267;48.816;9.230;2023-02-02T18:38:09;8.40;99.90
4509;DHT22;2267;48.816;9.230;2023-02-02T18:40:36;8.40;99.90
4509;DHT22;2267;48.816;9.230;2023-02-02T18:43:04;8.30;99.90
4509;DHT22;2267;48.816;9.230;2023-02-02T18:45:31;8.30;99.90
4509;DHT22;2267;48.816;9.230;2023-02-02T18:47:58;8.30;99.90
4509;DHT22;2267;48.816;9.230;2023-02-02T18:50:24;8.30;99.90
4509;DHT22;2267;48.816;9.230;2023-02-02T18:52:51;8.20;99.90
4509;DHT22;2267;48.816;9.230;2023-02-02T18:55:18;8.20;99.90